Time;durP1;ratioP1;P1;durP2;ratioP2;P2;SDS_P1;SDS_P2;PMS_P1;PMS_P2;Temp;Humidity;BMP_temperature;BMP_pressure;BME280_temperature;BME280_humidity;BME280_pressure;Samples;Min_cycle;Max_cycle;Signal;HPM_P1;HPM_P2
2021/12/28 00:04:48;;;;;;;1.30;0.60;;;20.90;28.70;21.30;92584.00;;;;10154351;28;45323;-59
2021/12/28 00:09:49;;;;;;;0.90;0.50;;;20.90;28.80;21.30;92590.00;;;;10185000;28;45449;-60
2021/12/28 00:15:03;;;;;;;1.27;0.50;;;20.90;29.30;21.30;92584.00;;;;10154733;29;45456;-59
2021/12/28 00:20:04;;;;;;;0.50;0.35;;;20.90;28.80;21.20;92575.00;;;;10167538;28;45201;-58
2021/12/28 00:25:05;;;;;;;1.10;0.60;;;20.80;28.70;21.20;92576.00;;;;10153769;28;45133;-59
2021/12/28 00:30:07;;;;;;;1.67;0.40;;;20.80;28.70;21.20;92556.00;;;;10168718;28;45233;-58
2021/12/28 00:35:08;;;;;;;1.05;0.50;;;20.80;28.70;21.20;92548.00;;;;10167820;28;46159;-59
2021/12/28 00:40:10;;;;;;;1.08;0.50;;;20.80;28.70;21.20;92531.00;;;;10183849;28;46687;-59
2021/12/28 00:45:12;;;;;;;1.40;0.47;;;20.80;28.70;21.20;92527.00;;;;10167917;28;46353;-60
2021/12/28 00:50:15;;;;;;;0.85;0.30;;;20.80;28.70;21.20;92513.00;;;;10167339;28;45191;-60
2021/12/28 00:55:18;;;;;;;1.15;0.50;;;20.80;28.70;21.20;92502.00;;;;10168097;28;45331;-60
2021/12/28 01:00:27;;;;;;;1.25;0.50;;;20.80;28.80;21.20;92500.00;;;;10152124;28;45232;-59
2021/12/28 01:05:28;;;;;;;0.88;0.40;;;20.80;28.80;21.20;92488.00;;;;10166865;28;45395;-60
2021/12/28 01:10:41;;;;;;;1.05;0.50;;;20.80;28.70;21.20;92484.00;;;;10152655;28;45224;-60
2021/12/28 01:15:42;;;;;;;1.35;0.40;;;20.80;28.80;21.20;92476.00;;;;10151140;29;45364;-60
2021/12/28 01:20:44;;;;;;;0.57;0.35;;;20.80;28.80;21.20;92458.00;;;;10172982;28;45407;-60
2021/12/28 01:25:45;;;;;;;1.27;0.50;;;20.80;28.80;21.20;92471.00;;;;10179828;28;45219;-60
2021/12/28 01:30:45;;;;;;;0.80;0.32;;;20.70;28.70;21.20;92458.00;;;;10163891;28;47072;-60
2021/12/28 01:35:46;;;;;;;0.77;0.35;;;20.70;29.30;21.20;92452.00;;;;10195797;28;45178;-60
2021/12/28 01:40:48;;;;;;;0.82;0.30;;;20.70;28.80;21.20;92445.00;;;;10165109;29;45212;-60
2021/12/28 01:45:49;;;;;;;1.10;0.45;;;20.80;28.80;21.20;92436.00;;;;10179258;28;45330;-60
2021/12/28 01:50:53;;;;;;;0.35;0.28;;;20.80;28.80;21.20;92431.00;;;;10164717;28;45184;-60
2021/12/28 01:55:57;;;;;;;0.68;0.30;;;20.80;28.80;21.20;92425.00;;;;10164539;28;45299;-60
2021/12/28 02:00:58;;;;;;;0.98;0.40;;;20.70;28.70;21.20;92442.00;;;;10158688;29;45272;-64
2021/12/28 02:05:59;;;;;;;0.30;0.20;;;20.80;28.70;21.20;92430.00;;;;10175883;28;45605;-58
2021/12/28 02:11:00;;;;;;;0.57;0.30;;;20.80;28.80;21.20;92429.00;;;;10178982;28;45178;-61
2021/12/28 02:16:01;;;;;;;0.50;0.28;;;20.80;28.80;21.20;92415.00;;;;10163529;28;45261;-60
2021/12/28 02:21:05;;;;;;;1.08;0.50;;;20.80;28.80;21.20;92425.00;;;;10179129;28;45236;-59
2021/12/28 02:26:06;;;;;;;0.52;0.30;;;20.80;28.80;21.20;92417.00;;;;10177732;28;46469;-59
2021/12/28 02:31:07;;;;;;;0.90;0.40;;;20.70;28.70;21.20;92402.00;;;;10175992;28;46379;-60
2021/12/28 02:36:08;;;;;;;1.02;0.35;;;20.80;28.80;21.20;92394.00;;;;10171464;28;46398;-60
2021/12/28 02:41:10;;;;;;;0.30;0.28;;;20.80;28.80;21.20;92389.00;;;;10171885;28;46251;-60
2021/12/28 02:46:11;;;;;;;0.63;0.20;;;20.80;28.80;21.20;92365.00;;;;10156415;28;45134;-61
2021/12/28 02:51:15;;;;;;;0.35;0.20;;;20.80;28.80;21.20;92378.00;;;;10156798;28;46207;-61
2021/12/28 02:56:21;;;;;;;0.77;0.30;;;20.70;28.80;21.10;92368.00;;;;10154795;28;46341;-61
2021/12/28 03:01:27;;;;;;;0.63;0.40;;;20.70;28.80;21.10;92387.00;;;;10187053;28;47638;-61
2021/12/28 03:06:27;;;;;;;0.82;0.30;;;20.70;28.80;21.10;92401.00;;;;10170488;28;45456;-59
2021/12/28 03:11:29;;;;;;;0.77;0.40;;;20.70;28.80;21.10;92389.00;;;;10186883;28;45197;-61
2021/12/28 03:16:32;;;;;;;0.40;0.30;;;20.70;28.80;21.10;92372.00;;;;10186373;28;45138;-61
2021/12/28 03:21:35;;;;;;;0.43;0.30;;;20.70;28.80;21.10;92357.00;;;;10156108;28;45307;-60
2021/12/28 03:26:36;;;;;;;0.32;0.20;;;20.70;28.80;21.10;92363.00;;;;10155324;28;45442;-60
2021/12/28 03:31:37;;;;;;;0.57;0.20;;;20.70;28.80;21.10;92345.00;;;;10154407;29;47182;-61
2021/12/28 03:36:38;;;;;;;0.50;0.25;;;20.70;28.80;21.10;92347.00;;;;10155123;28;45967;-61
2021/12/28 03:41:39;;;;;;;0.20;0.13;;;20.70;28.80;21.10;92361.00;;;;10170307;28;45232;-60
2021/12/28 03:46:39;;;;;;;0.20;0.20;;;20.70;28.80;21.10;92347.00;;;;10169077;28;45596;-60
2021/12/28 03:51:40;;;;;;;0.45;0.25;;;20.70;28.80;21.10;92346.00;;;;10155325;29;45383;-61
2021/12/28 03:56:41;;;;;;;0.30;0.20;;;20.70;28.80;21.10;92366.00;;;;10154162;28;46294;-59
2021/12/28 04:01:41;;;;;;;0.17;0.15;;;20.70;28.80;21.10;92375.00;;;;10154705;29;45172;-61
2021/12/28 04:06:42;;;;;;;0.32;0.10;;;20.70;28.80;21.10;92378.00;;;;10153968;28;45410;-61
2021/12/28 04:11:43;;;;;;;0.40;0.22;;;20.70;28.80;21.10;92368.00;;;;10154119;29;45413;-60
2021/12/28 04:16:43;;;;;;;0.57;0.22;;;20.70;28.80;21.10;92342.00;;;;10184826;28;46847;-59
2021/12/28 04:21:44;;;;;;;0.35;0.10;;;20.70;28.90;21.10;92340.00;;;;10168513;28;45898;-60
2021/12/28 04:26:45;;;;;;;0.73;0.20;;;20.60;28.80;21.00;92346.00;;;;10184193;28;45303;-61
2021/12/28 04:31:45;;;;;;;0.17;0.17;;;20.60;28.80;21.10;92363.00;;;;10184187;28;45374;-60
2021/12/28 04:36:47;;;;;;;0.63;0.10;;;20.70;28.90;21.00;92346.00;;;;10168253;28;45232;-59
2021/12/28 04:41:48;;;;;;;0.28;0.10;;;20.60;28.90;21.00;92363.00;;;;10151555;29;46980;-60
2021/12/28 04:46:48;;;;;;;0.47;0.20;;;20.60;28.80;21.00;92355.00;;;;10183861;28;45392;-59
2021/12/28 04:51:49;;;;;;;0.25;0.20;;;20.60;28.90;21.00;92352.00;;;;10153457;29;45996;-60
2021/12/28 04:56:50;;;;;;;0.10;0.10;;;20.60;28.90;21.00;92351.00;;;;10166576;28;45235;-61
2021/12/28 05:01:51;;;;;;;0.65;0.35;;;20.60;28.90;21.00;92356.00;;;;10167292;28;46376;-61
2021/12/28 05:06:54;;;;;;;0.57;0.30;;;20.60;28.90;21.00;92354.00;;;;10183028;28;45191;-61
2021/12/28 05:11:55;;;;;;;0.55;0.20;;;20.60;28.90;21.10;92367.00;;;;10167175;28;45541;-60
2021/12/28 05:16:57;;;;;;;0.32;0.17;;;20.70;28.90;21.20;92356.00;;;;10152339;28;45207;-59
2021/12/28 05:21:57;;;;;;;0.17;0.10;;;20.70;28.90;21.30;92353.00;;;;10182971;28;45238;-59
2021/12/28 05:26:58;;;;;;;0.10;0.08;;;20.80;28.80;21.40;92353.00;;;;10152522;29;46204;-61
2021/12/28 05:31:59;;;;;;;0.55;0.20;;;20.90;28.90;21.50;92350.00;;;;10152159;29;45347;-60
2021/12/28 05:36:59;;;;;;;0.15;0.10;;;20.90;28.80;21.50;92347.00;;;;10182638;28;45176;-61
2021/12/28 05:42:01;;;;;;;0.30;0.10;;;21.00;28.70;21.50;92334.00;;;;10182324;28;45644;-58
2021/12/28 05:47:02;;;;;;;0.20;0.10;;;21.10;28.70;21.60;92347.00;;;;10151677;28;46284;-61
2021/12/28 05:52:04;;;;;;;0.17;0.10;;;21.10;28.70;21.60;92327.00;;;;10165951;28;47250;-59
2021/12/28 05:57:05;;;;;;;0.13;0.10;;;21.10;28.60;21.60;92335.00;;;;10150806;28;46085;-60
2021/12/28 06:02:06;;;;;;;0.10;0.10;;;21.20;28.60;21.60;92322.00;;;;10165942;28;46289;-61
2021/12/28 06:07:07;;;;;;;0.57;0.20;;;21.20;28.60;21.70;92342.00;;;;10185635;28;46351;-60
2021/12/28 06:12:08;;;;;;;0.05;0.05;;;21.20;28.60;21.70;92348.00;;;;10159078;29;45170;-59
2021/12/28 06:17:09;;;;;;;0.13;0.10;;;21.20;28.60;21.70;92337.00;;;;10156992;29;46266;-60
2021/12/28 06:22:10;;;;;;;0.20;0.00;;;21.20;28.50;21.70;92333.00;;;;10158622;29;45206;-59
2021/12/28 06:27:11;;;;;;;0.10;0.10;;;21.20;28.60;21.70;92320.00;;;;10188144;28;45108;-61
2021/12/28 06:32:12;;;;;;;0.30;0.10;;;21.30;28.50;21.70;92342.00;;;;10188428;28;45288;-59
2021/12/28 06:37:12;;;;;;;0.32;0.10;;;21.30;29.00;21.70;92342.00;;;;10172562;28;45343;-60
2021/12/28 06:42:13;;;;;;;0.10;0.10;;;21.30;28.60;21.70;92350.00;;;;10171101;28;45355;-60
2021/12/28 06:47:14;;;;;;;0.10;0.10;;;21.30;28.50;21.70;92341.00;;;;10155748;28;45437;-58
2021/12/28 06:52:15;;;;;;;0.20;0.10;;;21.30;28.50;21.70;92346.00;;;;10155973;28;45311;-60
2021/12/28 06:57:16;;;;;;;0.10;0.10;;;21.30;28.50;21.70;92355.00;;;;10169297;28;46770;-60
2021/12/28 07:02:18;;;;;;;0.52;0.10;;;21.30;28.50;21.70;92354.00;;;;10170737;28;45369;-59
2021/12/28 07:07:19;;;;;;;0.10;0.10;;;21.30;28.50;21.70;92332.00;;;;10169482;28;45133;-60
2021/12/28 07:12:19;;;;;;;0.10;0.00;;;21.30;28.50;21.80;92348.00;;;;10155300;29;45417;-58
2021/12/28 07:17:20;;;;;;;0.00;0.00;;;21.30;28.50;21.80;92356.00;;;;10154078;28;45241;-59
2021/12/28 07:22:21;;;;;;;0.40;0.10;;;21.30;28.50;21.80;92327.00;;;;10154735;29;46135;-59
2021/12/28 07:27:22;;;;;;;0.00;0.00;;;21.30;28.50;21.80;92350.00;;;;10153868;28;45266;-60
2021/12/28 07:32:23;;;;;;;0.30;0.10;;;21.30;28.50;21.80;92349.00;;;;10169986;28;45311;-60
2021/12/28 07:37:23;;;;;;;0.20;0.00;;;21.40;28.60;21.80;92355.00;;;;10168196;28;45335;-59
2021/12/28 07:42:24;;;;;;;0.10;0.00;;;21.40;28.50;21.80;92356.00;;;;10185131;28;46900;-58
2021/12/28 07:47:25;;;;;;;0.13;0.10;;;21.40;28.50;21.80;92375.00;;;;10152914;29;46203;-59
2021/12/28 07:52:25;;;;;;;0.00;0.00;;;21.40;28.50;21.90;92375.00;;;;10154049;28;46070;-61
2021/12/28 07:57:26;;;;;;;0.08;0.08;;;21.40;28.50;21.90;92383.00;;;;10171880;28;45538;-59
2021/12/28 08:02:27;;;;;;;0.13;0.10;;;21.40;28.50;21.90;92378.00;;;;10155241;29;45198;-59
2021/12/28 08:07:27;;;;;;;0.13;0.10;;;21.40;28.40;21.90;92383.00;;;;10151916;29;45407;-61
2021/12/28 08:12:28;;;;;;;0.10;0.10;;;21.40;28.40;21.90;92387.00;;;;10153221;29;45354;-59
2021/12/28 08:17:30;;;;;;;0.20;0.10;;;21.40;28.40;21.90;92396.00;;;;10184146;28;46118;-61
2021/12/28 08:22:30;;;;;;;0.20;0.00;;;21.40;28.50;21.90;92404.00;;;;10168760;28;45214;-60
2021/12/28 08:27:31;;;;;;;0.10;0.10;;;21.40;28.40;21.90;92411.00;;;;10153223;29;45318;-59
2021/12/28 08:32:32;;;;;;;0.08;0.00;;;21.40;28.40;21.90;92404.00;;;;10183202;28;45371;-60
2021/12/28 08:37:33;;;;;;;0.10;0.10;;;21.40;28.50;21.90;92398.00;;;;10183142;28;46521;-59
2021/12/28 08:42:34;;;;;;;0.20;0.00;;;21.40;28.40;21.90;92387.00;;;;10159541;28;45577;-60
2021/12/28 08:47:35;;;;;;;0.10;0.10;;;21.40;28.40;21.90;92390.00;;;;10152923;28;46006;-61
2021/12/28 08:52:37;;;;;;;0.00;0.00;;;21.40;28.40;21.90;92419.00;;;;10165266;28;45545;-60
2021/12/28 08:57:38;;;;;;;0.00;0.00;;;21.40;28.40;21.90;92425.00;;;;10165015;28;45315;-59
2021/12/28 09:02:39;;;;;;;0.00;0.00;;;21.40;28.40;21.90;92441.00;;;;10183340;28;46535;-59
2021/12/28 09:07:39;;;;;;;0.43;0.08;;;21.50;28.40;21.90;92460.00;;;;10151752;29;46478;-60
2021/12/28 09:12:40;;;;;;;0.08;0.00;;;21.40;28.40;21.90;92475.00;;;;10152463;28;45136;-58
2021/12/28 09:17:42;;;;;;;0.10;0.10;;;21.50;28.50;21.90;92469.00;;;;10152387;28;45267;-59
2021/12/28 09:22:43;;;;;;;0.10;0.00;;;21.50;28.50;21.90;92455.00;;;;10131440;28;45327;-59
2021/12/28 09:27:46;;;;;;;0.63;0.10;;;21.50;28.40;21.90;92463.00;;;;10164658;28;45871;-61
2021/12/28 09:32:48;;;;;;;0.10;0.03;;;21.50;28.50;21.90;92454.00;;;;10182639;28;46513;-60
2021/12/28 09:37:49;;;;;;;0.00;0.00;;;21.40;28.40;21.90;92439.00;;;;10152240;28;45330;-60
2021/12/28 09:42:50;;;;;;;0.10;0.00;;;21.50;28.50;21.90;92462.00;;;;10155333;28;46405;-61
2021/12/28 09:47:51;;;;;;;0.17;0.00;;;21.50;28.50;21.90;92440.00;;;;10154691;28;48471;-59
2021/12/28 09:52:52;;;;;;;0.52;0.00;;;21.50;28.40;21.90;92457.00;;;;10174982;28;45474;-59
2021/12/28 09:57:53;;;;;;;0.35;0.00;;;21.50;28.50;21.90;92477.00;;;;10155165;28;45379;-60
2021/12/28 10:02:55;;;;;;;0.00;0.00;;;21.50;28.50;21.90;92469.00;;;;10188293;28;46864;-60
2021/12/28 10:07:59;;;;;;;0.45;0.00;;;21.50;28.50;22.00;92463.00;;;;10167768;28;45962;-58
2021/12/28 10:13:05;;;;;;;0.00;0.00;;;21.50;28.50;21.90;92468.00;;;;10156230;29;45270;-59
2021/12/28 10:18:11;;;;;;;0.00;0.00;;;21.50;28.50;22.00;92476.00;;;;10186466;28;45509;-59
2021/12/28 10:23:16;;;;;;;0.00;0.00;;;21.50;28.50;22.00;92471.00;;;;10155110;28;46732;-59
2021/12/28 10:28:32;;;;;;;0.10;0.10;;;21.40;28.40;21.90;92466.00;;;;10156087;28;45686;-59
2021/12/28 10:33:37;;;;;;;0.10;0.00;;;21.50;28.50;21.90;92483.00;;;;10157066;28;45233;-59
2021/12/28 10:38:47;;;;;;;0.10;0.00;;;21.50;28.50;21.90;92453.00;;;;10171362;28;46503;-60
2021/12/28 10:43:51;;;;;;;0.20;0.00;;;21.50;28.50;21.90;92445.00;;;;10185503;28;47283;-59
2021/12/28 10:49:01;;;;;;;0.13;0.10;;;21.50;28.50;21.90;92458.00;;;;10184362;28;45326;-58
2021/12/28 10:59:09;;;;;;;0.00;0.00;;;21.50;28.60;21.90;92448.00;;;;10167546;28;45358;-60
2021/12/28 11:04:13;;;;;;;0.15;0.10;;;21.50;28.60;21.90;92442.00;;;;10152337;28;45911;-58
2021/12/28 11:09:22;;;;;;;0.00;0.00;;;21.50;28.60;22.00;92451.00;;;;10132672;29;46509;-60
2021/12/28 11:14:28;;;;;;;0.00;0.00;;;21.50;28.70;22.00;92447.00;;;;10167173;28;45566;-58
2021/12/28 11:19:33;;;;;;;0.55;0.10;;;21.50;28.70;22.00;92429.00;;;;10184439;28;45389;-59
2021/12/28 11:24:46;;;;;;;0.00;0.00;;;21.60;28.70;22.00;92455.00;;;;10167593;28;45276;-59
2021/12/28 11:29:46;;;;;;;0.00;0.00;;;21.50;28.70;22.00;92449.00;;;;10152002;28;45250;-59
2021/12/28 11:34:48;;;;;;;0.00;0.00;;;21.60;28.70;22.00;92450.00;;;;10151407;28;45288;-59
2021/12/28 11:39:54;;;;;;;0.00;0.00;;;21.50;28.70;22.00;92438.00;;;;10168878;28;45355;-60
2021/12/28 11:44:55;;;;;;;0.00;0.00;;;21.50;28.70;22.00;92422.00;;;;10184789;28;47949;-59
2021/12/28 11:49:58;;;;;;;0.00;0.00;;;21.50;28.70;22.00;92428.00;;;;10168574;28;45374;-58
2021/12/28 11:55:00;;;;;;;0.43;0.00;;;21.50;28.70;22.00;92418.00;;;;10152265;28;46245;-60
2021/12/28 12:00:09;;;;;;;0.00;0.00;;;21.50;28.70;22.00;92423.00;;;;10168087;28;45206;-58
2021/12/28 12:05:23;;;;;;;0.00;0.00;;;21.60;28.70;22.00;92412.00;;;;10151979;28;45421;-59
2021/12/28 12:10:27;;;;;;;0.35;0.00;;;21.60;28.80;22.00;92402.00;;;;10168959;28;45161;-59
2021/12/28 12:15:38;;;;;;;0.00;0.00;;;21.50;28.70;22.00;92408.00;;;;10168983;28;45877;-59
2021/12/28 12:20:48;;;;;;;0.00;0.00;;;21.60;28.80;22.00;92412.00;;;;10166555;28;45256;-58
2021/12/28 12:26:03;;;;;;;0.00;0.00;;;21.50;28.80;22.00;92375.00;;;;10153173;29;46222;-58
2021/12/28 12:31:08;;;;;;;0.00;0.00;;;21.50;28.70;22.00;92399.00;;;;10151944;29;47703;-59
2021/12/28 12:36:32;;;;;;;0.00;0.00;;;21.60;28.80;22.00;92391.00;;;;10182143;28;47314;-59
2021/12/28 12:41:49;;;;;;;0.10;0.00;;;21.50;28.70;22.00;92397.00;;;;10165228;28;45354;-58
2021/12/28 12:46:52;;;;;;;;;;;21.50;28.80;22.00;92385.00;;;;10165920;28;45216;-59
2021/12/28 12:52:05;;;;;;;0.30;0.00;;;21.50;28.80;21.80;92386.00;;;;10152401;28;45384;-59
2021/12/28 12:57:08;;;;;;;0.15;0.00;;;21.50;31.60;21.60;92386.00;;;;10165982;28;45417;-59
2021/12/28 13:02:16;;;;;;;0.22;0.00;;;21.40;32.20;21.50;92377.00;;;;10149291;29;46438;-59
2021/12/28 13:07:23;;;;;;;0.20;0.00;;;21.20;32.90;21.50;92387.00;;;;10148926;28;45795;-58
2021/12/28 13:12:25;;;;;;;0.50;0.10;;;21.20;32.40;21.50;92400.00;;;;10183020;28;47196;-59
2021/12/28 13:17:28;;;;;;;1.45;0.20;;;21.10;31.90;21.50;92384.00;;;;10166026;28;45420;-59
2021/12/28 13:22:32;;;;;;;0.20;0.00;;;21.10;31.80;21.50;92392.00;;;;10183163;28;45170;-59
2021/12/28 13:27:34;;;;;;;0.60;0.28;;;21.10;31.80;21.60;92404.00;;;;10182300;28;45581;-59
2021/12/28 13:32:40;;;;;;;0.63;0.15;;;21.10;31.70;21.50;92411.00;;;;10182852;28;45177;-59
2021/12/28 13:37:50;;;;;;;1.08;0.10;;;21.10;32.00;21.50;92427.00;;;;10181499;28;45332;-59
2021/12/28 13:43:00;;;;;;;0.20;0.08;;;21.10;32.00;21.50;92443.00;;;;10161834;28;47368;-59
2021/12/28 13:48:14;;;;;;;0.85;0.13;;;21.10;32.20;21.50;92432.00;;;;10148617;29;45441;-58
2021/12/28 13:53:17;;;;;;;0.98;0.20;;;21.10;32.20;21.50;92412.00;;;;10182551;28;45422;-59
2021/12/28 13:58:32;;;;;;;0.32;0.10;;;21.10;32.00;21.50;92410.00;;;;10150903;28;45308;-58
2021/12/28 14:03:33;;;;;;;1.60;0.23;;;21.10;32.00;21.50;92424.00;;;;10151608;29;45466;-60
2021/12/28 14:08:38;;;;;;;0.60;0.10;;;21.10;32.00;21.50;92432.00;;;;10178999;28;46352;-61
2021/12/28 14:13:45;;;;;;;0.25;0.08;;;21.10;32.50;21.60;92428.00;;;;10181178;28;45235;-58
2021/12/28 14:18:48;;;;;;;;;;;21.10;32.30;21.60;92415.00;;;;10163643;28;45523;-59
2021/12/28 14:24:29;;;;;;;0.80;0.10;;;21.20;32.50;21.60;92437.00;;;;10148733;29;47312;-59
2021/12/28 14:29:32;;;;;;;0.45;0.10;;;21.20;32.50;21.70;92470.00;;;;10116288;28;45387;-58
2021/12/28 14:34:38;;;;;;;0.63;0.10;;;21.20;32.30;21.60;92448.00;;;;10157379;28;46254;-58
2021/12/28 14:39:46;;;;;;;1.65;0.20;;;21.20;32.50;21.70;92478.00;;;;10171744;28;45410;-60
2021/12/28 14:45:02;;;;;;;1.02;0.10;;;21.20;32.60;21.70;92442.00;;;;10171268;28;45316;-57
2021/12/28 14:50:28;;;;;;;0.63;0.10;;;21.30;32.30;21.70;92494.00;;;;10171165;28;46277;-58
2021/12/28 14:55:32;;;;;;;0.30;0.10;;;21.30;32.30;21.70;92518.00;;;;10169955;28;45419;-57
2021/12/28 15:00:46;;;;;;;1.55;0.15;;;21.30;32.30;21.70;92513.00;;;;10155907;28;45606;-57
2021/12/28 15:06:00;;;;;;;2.55;0.30;;;21.30;32.30;21.60;92498.00;;;;10169624;28;45240;-57
2021/12/28 15:11:01;;;;;;;0.30;0.17;;;21.20;32.30;21.70;92504.00;;;;10169448;28;46279;-57
2021/12/28 15:16:03;;;;;;;0.43;0.10;;;21.30;32.30;21.70;92513.00;;;;10169281;28;45390;-59
2021/12/28 15:21:05;;;;;;;1.02;0.10;;;21.30;32.30;21.70;92535.00;;;;10189080;28;45891;-59
2021/12/28 15:26:06;;;;;;;1.77;0.45;;;21.30;32.40;21.60;92531.00;;;;10188866;28;45558;-58
2021/12/28 15:31:06;;;;;;;1.77;0.10;;;21.30;32.30;21.70;92544.00;;;;10138390;28;45327;-58
2021/12/28 15:36:12;;;;;;;1.67;0.30;;;21.30;32.20;21.70;92561.00;;;;10153447;29;45630;-57
2021/12/28 15:41:13;;;;;;;1.90;0.20;;;21.30;32.20;21.70;92567.00;;;;10154552;29;45957;-59
2021/12/28 15:46:13;;;;;;;2.08;0.20;;;21.30;32.10;21.70;92577.00;;;;10154257;28;45411;-58
2021/12/28 15:51:15;;;;;;;2.58;0.28;;;21.30;32.00;21.70;92579.00;;;;10153307;28;46561;-58
2021/12/28 15:56:16;;;;;;;2.10;0.30;;;21.30;31.90;21.70;92611.00;;;;10167206;28;46906;-59
2021/12/28 16:01:17;;;;;;;1.40;0.30;;;21.30;31.60;21.60;92614.00;;;;10154611;28;45456;-58
2021/12/28 16:06:18;;;;;;;0.98;0.40;;;21.30;31.50;21.60;92606.00;;;;10153779;28;45930;-59
2021/12/28 16:11:20;;;;;;;2.15;0.30;;;21.20;31.00;21.50;92621.00;;;;10184055;28;46148;-59
2021/12/28 16:16:21;;;;;;;1.45;0.22;;;21.20;30.20;21.50;92626.00;;;;10182150;28;45280;-58
2021/12/28 16:21:23;;;;;;;1.83;0.40;;;21.10;29.90;21.40;92640.00;;;;10149459;28;45169;-59
2021/12/28 16:26:24;;;;;;;4.45;0.47;;;21.10;30.40;21.50;92634.00;;;;10183798;28;45256;-59
2021/12/28 16:31:26;;;;;;;2.60;0.40;;;21.10;30.50;21.40;92648.00;;;;10153843;29;45268;-59
2021/12/28 16:36:27;;;;;;;1.17;0.30;;;21.10;30.20;21.50;92652.00;;;;10153206;29;46088;-59
2021/12/28 16:41:28;;;;;;;2.35;0.40;;;21.10;30.60;21.50;92666.00;;;;10184619;28;45216;-58
2021/12/28 16:46:29;;;;;;;2.88;0.30;;;21.10;30.90;21.50;92694.00;;;;10153072;28;45229;-59
2021/12/28 16:51:30;;;;;;;2.47;0.38;;;21.10;30.90;21.50;92707.00;;;;10183381;28;46281;-58
2021/12/28 16:56:33;;;;;;;1.98;0.40;;;21.10;31.00;21.50;92682.00;;;;10183870;28;46455;-59
2021/12/28 17:01:34;;;;;;;1.27;0.30;;;21.10;30.90;21.40;92700.00;;;;10149110;28;45255;-59
2021/12/28 17:06:35;;;;;;;1.30;0.28;;;21.10;31.00;21.50;92693.00;;;;10148254;28;45251;-59
2021/12/28 17:11:35;;;;;;;1.98;0.40;;;21.10;31.10;21.50;92664.00;;;;10151227;29;46221;-59
2021/12/28 17:16:36;;;;;;;3.95;0.43;;;21.10;31.20;21.40;92658.00;;;;10166011;28;46990;-59
2021/12/28 17:21:37;;;;;;;1.77;0.45;;;21.10;30.30;21.40;92677.00;;;;10183186;28;46264;-58
2021/12/28 17:26:37;;;;;;;1.15;0.38;;;21.10;30.90;21.50;92680.00;;;;10181680;28;46620;-59
2021/12/28 17:31:38;;;;;;;0.77;0.30;;;21.10;31.00;21.50;92653.00;;;;10182100;28;46270;-58
2021/12/28 17:36:39;;;;;;;1.58;0.40;;;21.10;31.10;21.50;92678.00;;;;10151538;29;46072;-58
2021/12/28 17:41:43;;;;;;;1.60;0.40;;;21.10;31.10;21.40;92680.00;;;;10182532;28;47592;-59
2021/12/28 17:46:43;;;;;;;0.90;0.40;;;21.10;31.20;21.40;92709.00;;;;10165175;28;46947;-58
2021/12/28 17:51:44;;;;;;;1.80;0.40;;;21.10;31.30;21.50;92693.00;;;;10178874;28;45518;-58
2021/12/28 17:56:45;;;;;;;0.98;0.40;;;21.10;31.40;21.40;92696.00;;;;10146719;28;45238;-58
2021/12/28 18:01:45;;;;;;;1.63;0.40;;;21.10;31.50;21.50;92710.00;;;;10215089;23;45257;-58
2021/12/28 18:06:46;;;;;;;1.38;0.70;;;21.10;31.50;21.40;92705.00;;;;10237084;28;45254;-59
2021/12/28 18:11:47;;;;;;;2.25;0.60;;;21.10;31.50;21.40;92701.00;;;;10239211;28;45240;-57
2021/12/28 18:16:48;;;;;;;2.45;0.55;;;21.10;31.50;21.40;92691.00;;;;10235166;28;45884;-58
2021/12/28 18:21:53;;;;;;;1.20;0.30;;;21.10;31.50;21.50;92693.00;;;;10265136;28;47023;-57
2021/12/28 18:26:54;;;;;;;1.33;0.40;;;21.10;31.50;21.40;92701.00;;;;10272346;28;45551;-58
2021/12/28 18:31:56;;;;;;;1.05;0.47;;;21.00;31.50;21.40;92716.00;;;;10277984;28;45211;-58
2021/12/28 18:36:57;;;;;;;3.05;0.38;;;21.10;31.60;21.40;92711.00;;;;10259060;28;46235;-57
2021/12/28 18:42:00;;;;;;;1.30;0.40;;;21.10;31.50;21.40;92678.00;;;;10236874;28;45300;-57
2021/12/28 18:47:01;;;;;;;1.48;0.50;;;21.00;31.50;21.40;92697.00;;;;10236588;28;46516;-58
2021/12/28 18:52:02;;;;;;;0.65;0.20;;;21.10;31.40;21.50;92696.00;;;;10235538;28;45991;-57
2021/12/28 18:57:05;;;;;;;4.43;0.68;;;21.10;31.40;21.40;92677.00;;;;10226258;28;45792;-58
2021/12/28 19:02:06;;;;;;;2.17;0.45;;;21.10;31.30;21.50;92691.00;;;;10194737;28;45295;-58
2021/12/28 19:07:07;;;;;;;1.73;0.47;;;21.10;31.30;21.40;92689.00;;;;10195322;28;45438;-58
2021/12/28 19:12:08;;;;;;;2.42;0.35;;;21.00;31.20;21.40;92709.00;;;;10237029;28;45494;-58
2021/12/28 19:17:10;;;;;;;4.38;0.50;;;21.00;31.30;21.40;92694.00;;;;10233964;28;46673;-58
2021/12/28 19:22:10;;;;;;;2.03;0.60;;;21.10;31.30;21.40;92702.00;;;;10235385;28;46075;-58
2021/12/28 19:27:11;;;;;;;4.43;0.70;;;21.10;31.30;21.50;92706.00;;;;10234394;28;45511;-61
2021/12/28 19:32:12;;;;;;;1.83;0.52;;;21.10;31.40;21.60;92731.00;;;;10233172;28;46399;-58
2021/12/28 19:37:13;;;;;;;1.77;0.30;;;21.10;31.30;21.70;92737.00;;;;10234542;28;45193;-58
2021/12/28 19:42:14;;;;;;;3.03;0.40;;;21.20;31.10;21.80;92712.00;;;;10233647;28;45433;-57
2021/12/28 19:47:15;;;;;;;3.22;0.40;;;21.30;30.90;21.80;92694.00;;;;10234709;28;45309;-57
2021/12/28 19:52:16;;;;;;;2.85;0.60;;;21.30;30.70;21.80;92718.00;;;;10233283;28;46163;-57
2021/12/28 19:57:17;;;;;;;0.73;0.28;;;21.40;30.60;21.80;92709.00;;;;10234030;28;45516;-57
2021/12/28 20:02:18;;;;;;;1.05;0.40;;;21.40;30.50;21.90;92732.00;;;;10233476;28;46127;-57
2021/12/28 20:07:19;;;;;;;3.58;0.43;;;21.40;30.40;21.90;92722.00;;;;10233073;28;45268;-57
2021/12/28 20:12:19;;;;;;;2.60;0.50;;;21.40;30.20;21.90;92742.00;;;;10248036;28;46427;-57
2021/12/28 20:17:20;;;;;;;1.65;0.50;;;21.40;30.50;21.90;92734.00;;;;10232622;28;45378;-57
2021/12/28 20:22:21;;;;;;;3.00;0.40;;;21.50;30.20;21.90;92750.00;;;;10231930;28;45259;-57
2021/12/28 20:27:21;;;;;;;1.23;0.32;;;21.50;30.10;21.90;92754.00;;;;10231801;28;46071;-57
2021/12/28 20:32:22;;;;;;;1.50;0.50;;;21.50;30.00;21.90;92752.00;;;;10233183;28;45203;-57
2021/12/28 20:37:23;;;;;;;3.60;0.40;;;21.50;30.00;21.90;92752.00;;;;10232658;28;45207;-57
2021/12/28 20:42:25;;;;;;;1.42;0.50;;;21.50;30.00;21.90;92755.00;;;;10231270;28;46904;-57
2021/12/28 20:47:27;;;;;;;0.77;0.20;;;21.50;30.00;21.90;92760.00;;;;10231116;28;45981;-57
2021/12/28 20:52:28;;;;;;;1.40;0.40;;;21.50;30.00;21.90;92750.00;;;;10230988;28;46246;-57
2021/12/28 20:57:28;;;;;;;1.30;0.30;;;21.50;30.00;21.90;92752.00;;;;10231195;28;45212;-57
2021/12/28 21:02:29;;;;;;;1.63;0.50;;;21.50;30.00;21.90;92774.00;;;;10230482;28;46505;-57
2021/12/28 21:07:30;;;;;;;1.70;0.52;;;21.50;30.00;21.90;92755.00;;;;10230717;28;45414;-57
2021/12/28 21:12:31;;;;;;;1.70;0.57;;;21.50;29.90;21.90;92751.00;;;;10247637;28;45225;-57
2021/12/28 21:17:31;;;;;;;2.88;0.40;;;21.50;29.90;21.90;92770.00;;;;10230630;28;46139;-57
2021/12/28 21:22:32;;;;;;;1.63;0.40;;;21.40;29.80;21.90;92781.00;;;;10231671;28;45357;-57
2021/12/28 21:27:33;;;;;;;2.40;0.55;;;21.40;29.90;21.80;92781.00;;;;10229939;28;45199;-57
2021/12/28 21:32:34;;;;;;;3.55;0.40;;;21.40;29.90;21.80;92783.00;;;;10230709;28;45843;-57
2021/12/28 21:37:38;;;;;;;1.42;0.40;;;21.40;30.00;21.70;92797.00;;;;10232198;28;45492;-57
2021/12/28 21:42:39;;;;;;;1.70;0.40;;;21.30;29.90;21.70;92792.00;;;;10237994;28;45236;-57
2021/12/28 21:47:40;;;;;;;1.73;0.57;;;21.30;29.90;21.60;92796.00;;;;10235762;28;47250;-57
2021/12/28 21:52:43;;;;;;;1.80;0.32;;;21.20;29.90;21.60;92822.00;;;;10232234;28;46197;-56
2021/12/28 21:57:44;;;;;;;1.85;0.40;;;21.20;30.00;21.60;92821.00;;;;10236578;28;45385;-57
2021/12/28 22:02:47;;;;;;;1.63;0.60;;;21.20;30.00;21.50;92823.00;;;;10236627;28;45207;-58
2021/12/28 22:07:52;;;;;;;1.05;0.40;;;21.20;30.00;21.50;92803.00;;;;10237323;28;45251;-59
2021/12/28 22:12:53;;;;;;;1.35;0.40;;;21.10;30.00;21.50;92824.00;;;;10252404;28;45313;-59
2021/12/28 22:17:54;;;;;;;3.75;0.60;;;21.10;30.00;21.40;92817.00;;;;10236116;28;45282;-58